Time;durP1;ratioP1;P1;durP2;ratioP2;P2;SDS_P1;SDS_P2;PMS_P1;PMS_P2;Temp;Humidity;BMP_temperature;BMP_pressure;BME280_temperature;BME280_humidity;BME280_pressure;Samples;Min_cycle;Max_cycle;Signal;HPM_P1;HPM_P2
2022/07/28 00:01:54;;;;;;;2.35;0.80;;;;;;;25.17;34.71;102117.28;5092780;28;20028;-76
2022/07/28 00:04:20;;;;;;;2.00;0.88;;;;;;;24.77;35.37;102108.63;5074026;28;20056;-76
2022/07/28 00:06:45;;;;;;;1.98;0.75;;;;;;;24.58;35.71;102113.09;5092765;28;20024;-76
2022/07/28 00:09:10;;;;;;;1.90;0.98;;;;;;;23.61;37.02;102111.31;5074239;28;20020;-75
2022/07/28 00:11:36;;;;;;;3.03;0.75;;;;;;;23.98;36.92;102106.16;5092209;28;20077;-77
2022/07/28 00:14:01;;;;;;;3.03;0.95;;;;;;;24.28;36.11;102105.66;5074452;28;20039;-76
2022/07/28 00:16:27;;;;;;;4.28;0.88;;;;;;;23.68;37.14;102107.44;5092439;28;20032;-76
2022/07/28 00:18:52;;;;;;;1.00;0.80;;;;;;;24.02;36.89;102111.25;5091698;28;20356;-76
2022/07/28 00:21:18;;;;;;;2.63;0.75;;;;;;;23.23;38.21;102099.69;5074522;28;20132;-76
2022/07/28 00:23:43;;;;;;;2.70;1.00;;;;;;;23.81;37.34;102102.44;5074448;28;20024;-76
2022/07/28 00:26:10;;;;;;;8.77;1.08;;;;;;;23.50;37.48;102106.47;5092330;28;20034;-75
2022/07/28 00:28:36;;;;;;;5.85;1.33;;;;;;;24.19;36.98;102113.16;5092071;28;20103;-76
2022/07/28 00:31:01;;;;;;;4.38;0.93;;;;;;;24.39;36.38;102106.00;5073582;28;20106;-77
2022/07/28 00:33:26;;;;;;;2.75;1.10;;;;;;;24.29;36.49;102102.91;5074148;28;20019;-76
2022/07/28 00:35:52;;;;;;;1.27;0.80;;;;;;;24.02;37.03;102100.59;5074226;28;20056;-75
2022/07/28 00:38:17;;;;;;;3.17;1.30;;;;;;;23.62;37.89;102096.19;5073091;28;20028;-76
2022/07/28 00:43:27;;;;;;;5.88;1.17;;;;;;;24.05;37.32;102099.56;5092187;28;20050;-76
2022/07/28 00:45:52;;;;;;;4.93;1.15;;;;;;;24.21;37.24;102105.94;5072931;28;20012;-76
2022/07/28 00:48:18;;;;;;;5.47;1.25;;;;;;;23.88;37.32;102098.56;5073734;28;20024;-76
2022/07/28 00:50:43;;;;;;;1.30;1.00;;;;;;;24.06;37.28;102101.31;5073612;28;20119;-77
2022/07/28 00:53:09;;;;;;;2.38;1.27;;;;;;;24.43;36.35;102096.88;5091262;28;20480;-76
2022/07/28 00:55:35;;;;;;;2.55;1.15;;;;;;;23.90;36.94;102105.63;5073663;28;20476;-76
2022/07/28 00:58:00;;;;;;;2.10;1.13;;;;;;;23.72;37.50;102094.84;5073765;28;20531;-76
2022/07/28 01:00:26;;;;;;;2.08;1.20;;;;;;;23.89;37.39;102096.75;5072964;28;20031;-76
2022/07/28 01:02:51;;;;;;;4.53;1.00;;;;;;;24.35;36.54;102099.06;5073713;28;20031;-76
2022/07/28 01:05:18;;;;;;;3.50;1.38;;;;;;;23.23;38.34;102097.03;5073361;28;20016;-75
2022/07/28 01:08:09;;;;;;;2.50;0.90;;;;;;;24.30;36.29;102090.41;5073123;28;20020;-76
2022/07/28 01:11:03;;;;;;;2.55;0.98;;;;;;;23.76;37.53;102103.56;5072630;28;20051;-76
2022/07/28 01:13:37;;;;;;;3.80;1.02;;;;;;;23.85;37.33;102097.78;5091015;28;20028;-76
2022/07/28 01:16:04;;;;;;;3.67;1.30;;;;;;;24.36;36.65;102098.13;5091562;28;20016;-76
2022/07/28 01:18:56;;;;;;;4.78;1.38;;;;;;;24.07;36.65;102097.72;5073485;28;20020;-76
2022/07/28 01:21:31;;;;;;;5.53;1.30;;;;;;;24.34;36.67;102091.97;5073178;28;20411;-76
2022/07/28 01:24:25;;;;;;;1.75;0.95;;;;;;;24.24;36.69;102082.69;5091686;28;20026;-76
2022/07/28 01:26:57;;;;;;;3.22;1.10;;;;;;;24.50;36.17;102071.59;5073285;28;20442;-76
2022/07/28 01:29:48;;;;;;;1.70;1.20;;;;;;;24.27;36.46;102077.19;5090934;28;20020;-76
2022/07/28 01:32:28;;;;;;;6.20;1.08;;;;;;;23.72;37.96;102081.50;5091451;28;20020;-76
2022/07/28 01:35:00;;;;;;;2.25;0.90;;;;;;;23.07;38.58;102071.00;5072480;28;20024;-76
2022/07/28 01:37:29;;;;;;;5.80;1.15;;;;;;;23.75;37.31;102076.00;5073245;28;20103;-76
2022/07/28 01:40:00;;;;;;;4.15;1.20;;;;;;;23.93;37.22;102073.44;5091447;28;20351;-76
2022/07/28 01:42:34;;;;;;;2.33;1.20;;;;;;;24.35;36.80;102072.34;5090909;28;20473;-76
2022/07/28 01:45:01;;;;;;;4.32;1.25;;;;;;;24.06;37.24;102063.94;5073294;28;20051;-76
2022/07/28 01:47:30;;;;;;;2.00;0.90;;;;;;;24.67;35.66;102059.22;5073284;28;20460;-76
2022/07/28 01:50:01;;;;;;;3.42;1.00;;;;;;;24.15;36.68;102068.84;5090671;28;20095;-76
2022/07/28 01:52:29;;;;;;;2.00;1.10;;;;;;;24.65;35.63;102066.47;5073366;28;20055;-76
2022/07/28 01:54:56;;;;;;;3.45;0.98;;;;;;;24.52;35.94;102056.34;5091390;28;20051;-76
2022/07/28 01:57:24;;;;;;;8.07;1.45;;;;;;;24.31;36.52;102068.09;5072200;28;20141;-77
2022/07/28 01:59:50;;;;;;;2.50;1.13;;;;;;;24.05;36.76;102063.03;5073158;28;20056;-76
2022/07/28 02:02:17;;;;;;;1.98;1.27;;;;;;;23.00;38.65;102061.53;5091216;28;20047;-76
2022/07/28 02:04:46;;;;;;;4.65;1.08;;;;;;;24.22;36.56;102053.34;5072367;28;20488;-76
2022/07/28 02:07:13;;;;;;;1.80;0.93;;;;;;;24.56;35.63;102059.72;5090921;28;20028;-76
2022/07/28 02:09:40;;;;;;;4.93;1.00;;;;;;;24.85;35.12;102057.41;5072273;28;20472;-76
2022/07/28 02:12:07;;;;;;;3.80;1.10;;;;;;;24.16;36.76;102054.53;5073009;28;20443;-76
2022/07/28 02:14:35;;;;;;;6.75;1.20;;;;;;;23.85;36.79;102066.66;5073032;28;20059;-76
2022/07/28 02:17:10;;;;;;;3.72;0.95;;;;;;;23.66;37.30;102055.94;5072399;28;20035;-76
2022/07/28 02:19:38;;;;;;;4.45;1.33;;;;;;;24.30;36.33;102050.31;5090965;28;20024;-76
2022/07/28 02:22:05;;;;;;;5.15;1.48;;;;;;;24.17;36.39;102050.91;5075543;28;20043;-76
2022/07/28 02:24:32;;;;;;;5.70;1.13;;;;;;;23.44;37.83;102050.72;5075814;28;20064;-76
2022/07/28 02:27:02;;;;;;;4.05;1.20;;;;;;;23.96;36.80;102047.50;5094748;28;20016;-76
2022/07/28 02:29:32;;;;;;;2.10;0.95;;;;;;;24.25;36.43;102037.19;5095071;28;20047;-77
2022/07/28 02:32:05;;;;;;;3.08;1.10;;;;;;;24.07;36.73;102048.75;5094172;28;20511;-76
2022/07/28 02:34:32;;;;;;;1.92;1.08;;;;;;;24.24;36.55;102050.63;5076335;28;20072;-76
2022/07/28 02:37:01;;;;;;;5.18;1.13;;;;;;;24.63;35.97;102044.28;5094737;28;20088;-76
2022/07/28 02:39:39;;;;;;;4.78;1.25;;;;;;;24.70;35.71;102043.00;5075547;28;20476;-75
2022/07/28 02:42:09;;;;;;;4.03;1.40;;;;;;;24.17;36.74;102053.59;5075976;28;20156;-76
2022/07/28 02:44:40;;;;;;;5.75;1.00;;;;;;;24.02;36.92;102057.84;5076218;28;20445;-76
2022/07/28 02:47:07;;;;;;;4.38;1.20;;;;;;;23.52;37.82;102056.59;5076279;28;20450;-76
2022/07/28 02:49:35;;;;;;;4.07;1.42;;;;;;;23.38;38.12;102048.31;5075999;28;20016;-76
2022/07/28 02:52:03;;;;;;;1.98;1.00;;;;;;;23.64;37.43;102036.47;5075464;28;20024;-75
2022/07/28 02:54:31;;;;;;;2.85;1.20;;;;;;;23.81;37.07;102035.69;5094044;28;20027;-76
2022/07/28 02:56:58;;;;;;;1.45;1.23;;;;;;;23.63;37.45;102042.75;5076071;28;20028;-75
2022/07/28 02:59:25;;;;;;;8.07;1.25;;;;;;;23.52;37.61;102037.91;5075217;28;20107;-76
2022/07/28 03:01:52;;;;;;;4.85;1.00;;;;;;;23.42;37.80;102047.25;5075887;28;20388;-76
2022/07/28 03:04:55;;;;;;;3.13;1.30;;;;;;;23.52;37.86;102045.03;5093819;28;20047;-76
2022/07/28 03:07:07;;;;;;;2.20;1.30;;;;;;;23.63;37.54;102041.88;5093183;28;20484;-76
2022/07/28 03:09:44;;;;;;;4.28;1.20;;;;;;;23.38;37.67;102046.53;5093614;28;20024;-76
2022/07/28 03:12:10;;;;;;;2.28;1.10;;;;;;;23.12;38.21;102045.03;5075781;28;20020;-76
2022/07/28 03:14:36;;;;;;;2.25;1.13;;;;;;;23.07;38.40;102040.78;5093299;28;20024;-76
2022/07/28 03:17:02;;;;;;;4.38;1.45;;;;;;;23.60;37.69;102044.69;5075621;28;20034;-76
2022/07/28 03:19:27;;;;;;;7.55;1.20;;;;;;;23.70;37.50;102046.00;5075110;28;20126;-76
2022/07/28 03:21:53;;;;;;;5.60;1.10;;;;;;;23.50;37.55;102052.25;5074893;28;20051;-77
2022/07/28 03:24:24;;;;;;;2.75;1.10;;;;;;;23.37;37.85;102049.28;5093603;28;20476;-76
2022/07/28 03:27:02;;;;;;;4.70;1.10;;;;;;;23.05;38.15;102048.84;5075319;28;20023;-76
2022/07/28 03:29:31;;;;;;;5.40;1.08;;;;;;;23.30;37.73;102047.81;5093564;28;20020;-77
2022/07/28 03:31:58;;;;;;;4.45;1.15;;;;;;;23.38;37.62;102045.66;5074546;28;20028;-76
2022/07/28 03:34:24;;;;;;;5.20;1.05;;;;;;;23.76;37.37;102048.38;5074309;28;20073;-77
2022/07/28 03:36:55;;;;;;;3.35;1.17;;;;;;;23.85;36.91;102049.75;5093426;28;20023;-76
2022/07/28 03:39:23;;;;;;;2.90;1.30;;;;;;;23.74;36.89;102046.72;5093262;28;20016;-77
2022/07/28 03:41:51;;;;;;;2.30;1.20;;;;;;;23.65;37.30;102042.69;5092793;28;20020;-77
2022/07/28 03:44:18;;;;;;;2.58;1.23;;;;;;;23.92;36.80;102050.34;5074872;28;20127;-76
2022/07/28 03:46:44;;;;;;;7.50;1.80;;;;;;;24.15;36.17;102055.47;5093322;28;20030;-77
2022/07/28 03:49:10;;;;;;;5.68;1.42;;;;;;;23.54;37.59;102054.69;5074717;28;20019;-77
2022/07/28 03:51:35;;;;;;;4.53;1.40;;;;;;;23.40;37.41;102053.59;5075235;28;20031;-78
2022/07/28 03:54:00;;;;;;;3.55;1.30;;;;;;;23.46;37.53;102051.50;5075154;28;20065;-76
2022/07/28 03:56:26;;;;;;;6.93;1.88;;;;;;;23.45;37.63;102052.47;5074528;28;20532;-77
2022/07/28 03:58:51;;;;;;;2.50;1.40;;;;;;;23.71;36.66;102058.41;5074702;28;20028;-76
2022/07/28 04:01:16;;;;;;;3.97;1.52;;;;;;;23.81;36.74;102069.50;5074882;28;20051;-77
2022/07/28 04:03:42;;;;;;;5.25;1.48;;;;;;;23.28;37.31;102066.53;5074381;28;20454;-76
2022/07/28 04:06:07;;;;;;;3.17;1.35;;;;;;;22.86;38.32;102070.97;5074416;28;20459;-77
2022/07/28 04:08:32;;;;;;;7.10;1.52;;;;;;;22.97;38.42;102056.31;5092969;28;20047;-77
2022/07/28 04:10:58;;;;;;;3.88;1.40;;;;;;;22.97;38.50;102058.97;5092224;28;20391;-77
2022/07/28 04:13:23;;;;;;;4.38;1.67;;;;;;;22.76;38.73;102069.63;5074827;28;20052;-77
2022/07/28 04:15:48;;;;;;;4.32;1.65;;;;;;;22.85;38.47;102068.38;5074600;28;20086;-76
2022/07/28 04:18:14;;;;;;;3.10;1.60;;;;;;;22.90;38.68;102065.50;5074162;28;20045;-77
2022/07/28 04:20:39;;;;;;;5.25;1.55;;;;;;;22.97;38.80;102061.66;5092367;28;20139;-77
2022/07/28 04:23:05;;;;;;;2.35;1.20;;;;;;;22.82;38.67;102064.06;5074448;28;20024;-76
2022/07/28 04:25:31;;;;;;;4.35;1.48;;;;;;;22.74;38.47;102068.84;5074290;28;20085;-77
2022/07/28 04:27:56;;;;;;;2.70;1.60;;;;;;;22.62;39.15;102067.53;5074012;28;20020;-77
2022/07/28 04:30:23;;;;;;;9.80;1.73;;;;;;;23.14;38.08;102060.97;5073773;28;20020;-77
2022/07/28 04:32:51;;;;;;;2.60;1.50;;;;;;;23.19;37.87;102065.16;5074257;28;20062;-76
2022/07/28 04:35:18;;;;;;;2.55;1.33;;;;;;;23.26;37.63;102065.75;5092546;28;20027;-77
2022/07/28 04:37:44;;;;;;;1.95;1.27;;;;;;;23.64;37.09;102070.28;5073732;28;20082;-77
2022/07/28 04:40:11;;;;;;;6.43;1.63;;;;;;;22.80;38.59;102071.22;5074125;28;20031;-75
2022/07/28 04:42:38;;;;;;;5.32;1.65;;;;;;;22.42;39.48;102071.03;5073989;28;20051;-77
2022/07/28 04:45:05;;;;;;;7.05;1.50;;;;;;;23.02;38.25;102065.00;5073597;28;20065;-77
2022/07/28 04:47:30;;;;;;;4.72;1.60;;;;;;;22.16;39.77;102064.91;5074046;28;20035;-77
2022/07/28 04:49:56;;;;;;;4.43;1.98;;;;;;;22.77;38.94;102066.03;5074262;28;20020;-77
2022/07/28 04:52:22;;;;;;;2.95;1.42;;;;;;;22.26;40.37;102069.88;5073699;28;20180;-77
2022/07/28 04:54:48;;;;;;;8.00;2.08;;;;;;;23.19;37.77;102062.50;5092117;28;20103;-77
2022/07/28 04:57:14;;;;;;;5.30;1.85;;;;;;;23.25;37.95;102057.84;5092196;28;20124;-77
2022/07/28 04:59:39;;;;;;;4.70;1.70;;;;;;;22.90;38.23;102066.38;5073015;28;20100;-77
2022/07/28 05:02:05;;;;;;;8.13;1.75;;;;;;;23.69;37.49;102060.28;5074120;28;20428;-77
2022/07/28 05:04:31;;;;;;;3.83;1.45;;;;;;;22.96;38.33;102073.25;5073931;28;20020;-77
2022/07/28 05:06:57;;;;;;;2.60;1.35;;;;;;;22.51;39.77;102069.78;5091359;28;20076;-77
2022/07/28 05:09:22;;;;;;;5.10;1.48;;;;;;;23.31;38.11;102062.88;5073790;28;20111;-77
2022/07/28 05:11:47;;;;;;;6.38;1.58;;;;;;;22.97;38.52;102057.19;5092065;28;20035;-77
2022/07/28 05:14:13;;;;;;;2.60;1.33;;;;;;;23.63;37.44;102065.88;5073298;28;20365;-77
2022/07/28 05:16:38;;;;;;;4.05;1.55;;;;;;;23.81;37.34;102069.50;5073797;28;20028;-77
2022/07/28 05:19:04;;;;;;;2.65;1.50;;;;;;;24.02;36.74;102070.34;5073660;28;20028;-77
2022/07/28 05:21:29;;;;;;;3.10;1.63;;;;;;;23.39;37.76;102068.75;5073320;28;20020;-77
2022/07/28 05:23:54;;;;;;;5.07;1.38;;;;;;;23.03;38.25;102066.72;5091883;28;20056;-77
2022/07/28 05:26:20;;;;;;;5.82;1.60;;;;;;;23.94;36.65;102069.84;5073751;28;20449;-77
2022/07/28 05:28:45;;;;;;;5.43;1.90;;;;;;;23.75;37.33;102076.00;5072906;28;20030;-77
2022/07/28 05:31:11;;;;;;;3.13;1.70;;;;;;;23.87;37.07;102066.56;5073588;28;20078;-77
2022/07/28 05:33:36;;;;;;;7.60;1.52;;;;;;;23.10;38.42;102073.53;5091211;28;20170;-77
2022/07/28 05:36:02;;;;;;;4.13;1.75;;;;;;;24.11;37.21;102069.03;5073568;28;20078;-77
2022/07/28 05:38:29;;;;;;;6.45;1.70;;;;;;;23.77;37.41;102071.47;5073348;28;20028;-77
2022/07/28 05:40:55;;;;;;;5.68;1.50;;;;;;;24.07;36.98;102060.34;5072875;28;20028;-77
2022/07/28 05:43:21;;;;;;;7.45;1.92;;;;;;;23.05;38.74;102048.84;5073330;28;20050;-77
2022/07/28 05:45:46;;;;;;;3.83;1.40;;;;;;;23.83;37.10;102065.84;5091642;28;20043;-77
2022/07/28 05:48:12;;;;;;;11.23;1.45;;;;;;;23.33;37.62;102061.03;5090893;28;20039;-77
2022/07/28 05:50:38;;;;;;;4.25;1.50;;;;;;;24.20;36.77;102061.44;5073427;28;20023;-77
2022/07/28 05:53:04;;;;;;;3.47;1.50;;;;;;;23.69;37.04;102060.28;5091749;28;20016;-77
2022/07/28 05:55:29;;;;;;;4.47;1.17;;;;;;;24.59;36.21;102056.03;5073477;28;20495;-77
2022/07/28 05:57:56;;;;;;;2.83;1.42;;;;;;;23.67;37.12;102056.81;5095556;28;20023;-77
2022/07/28 06:00:22;;;;;;;6.20;1.58;;;;;;;24.08;37.06;102062.03;5095456;28;20106;-77
2022/07/28 06:02:49;;;;;;;4.68;1.55;;;;;;;24.31;36.26;102057.41;5076615;28;20039;-77
2022/07/28 06:05:16;;;;;;;4.97;1.65;;;;;;;24.93;34.89;102052.53;5095627;28;20039;-77
2022/07/28 06:07:42;;;;;;;4.68;1.40;;;;;;;25.18;35.23;102054.81;5077085;28;20020;-76
2022/07/28 06:10:09;;;;;;;5.60;1.48;;;;;;;25.13;35.28;102056.84;5076393;28;20475;-77
2022/07/28 06:12:42;;;;;;;8.75;1.30;;;;;;;24.17;36.57;102072.28;5077338;28;20027;-77
2022/07/28 06:15:26;;;;;;;2.65;1.35;;;;;;;25.09;35.30;102063.31;5076992;28;20047;-77
2022/07/28 06:17:54;;;;;;;5.05;1.17;;;;;;;25.29;34.99;102056.03;5094438;28;20340;-77
2022/07/28 06:20:24;;;;;;;2.97;1.08;;;;;;;25.55;34.09;102062.69;5076999;28;20499;-77
2022/07/28 06:22:51;;;;;;;7.38;1.30;;;;;;;25.33;34.56;102063.00;5076311;28;20546;-77
2022/07/28 06:25:22;;;;;;;2.00;1.00;;;;;;;24.70;35.32;102065.28;5077176;28;20480;-76
2022/07/28 06:27:49;;;;;;;3.28;1.10;;;;;;;24.61;36.11;102070.19;5076801;28;20468;-77
2022/07/28 06:30:16;;;;;;;4.18;1.02;;;;;;;24.81;35.53;102072.78;5076245;28;20529;-77
2022/07/28 06:32:42;;;;;;;6.68;2.08;;;;;;;24.85;35.27;102069.00;5076791;28;20020;-77
2022/07/28 06:35:08;;;;;;;4.32;1.48;;;;;;;25.13;35.21;102055.97;5076756;28;20551;-77
2022/07/28 06:37:33;;;;;;;5.32;1.30;;;;;;;24.56;36.00;102059.72;5075983;28;20491;-77
2022/07/28 06:39:59;;;;;;;3.13;1.00;;;;;;;25.37;34.83;102059.22;5076580;28;20024;-77
2022/07/28 06:42:25;;;;;;;6.07;1.13;;;;;;;26.34;33.50;102059.22;5076498;28;20105;-77
2022/07/28 06:44:51;;;;;;;3.25;1.17;;;;;;;26.81;32.79;102049.38;5075922;28;20387;-78
2022/07/28 06:47:17;;;;;;;3.45;1.25;;;;;;;26.49;33.08;102048.56;5094609;28;20559;-77
2022/07/28 06:49:43;;;;;;;2.47;1.20;;;;;;;26.82;32.14;102050.22;5094867;28;20059;-77
2022/07/28 06:52:08;;;;;;;1.48;1.00;;;;;;;27.80;31.50;102054.06;5093626;28;20031;-78
2022/07/28 06:54:34;;;;;;;2.92;0.93;;;;;;;29.13;29.80;102056.06;5076529;28;20070;-77
2022/07/28 06:56:59;;;;;;;3.40;1.20;;;;;;;30.93;27.44;102062.75;5076467;28;20028;-77
2022/07/28 06:59:25;;;;;;;4.65;1.25;;;;;;;28.86;28.83;102056.13;5075786;28;20028;-77
2022/07/28 07:01:50;;;;;;;3.83;1.17;;;;;;;29.68;28.08;102061.22;5076324;28;20443;-77
2022/07/28 07:04:16;;;;;;;2.58;1.15;;;;;;;30.85;26.61;102063.31;5076021;28;20039;-77
2022/07/28 07:06:42;;;;;;;3.10;0.90;;;;;;;31.20;26.04;102048.97;5092932;28;20487;-77
2022/07/28 07:09:07;;;;;;;4.63;0.93;;;;;;;32.30;24.67;102059.91;5075849;28;20507;-77
2022/07/28 07:11:32;;;;;;;4.10;1.23;;;;;;;32.65;24.09;102056.03;5093985;28;20028;-77
2022/07/28 07:13:58;;;;;;;4.47;0.90;;;;;;;32.81;22.84;102054.78;5093740;28;20078;-77
2022/07/28 07:16:23;;;;;;;2.30;0.90;;;;;;;33.38;22.96;102051.69;5076064;28;20024;-77
2022/07/28 07:18:51;;;;;;;2.60;0.90;;;;;;;32.60;23.42;102052.91;5094001;28;20093;-76
2022/07/28 07:21:17;;;;;;;2.00;0.60;;;;;;;30.52;25.18;102054.16;5093365;28;20430;-76
2022/07/28 07:23:43;;;;;;;3.80;0.80;;;;;;;30.16;25.51;102045.13;5075998;28;20476;-77
2022/07/28 07:26:08;;;;;;;1.23;0.70;;;;;;;31.65;23.75;102049.94;5075440;28;20034;-77
2022/07/28 07:28:33;;;;;;;2.65;0.63;;;;;;;33.17;22.54;102043.56;5075949;28;20502;-77
2022/07/28 07:30:59;;;;;;;5.63;0.77;;;;;;;32.85;23.37;102045.41;5094205;28;20032;-77
2022/07/28 07:33:24;;;;;;;2.25;0.75;;;;;;;30.85;23.93;102049.84;5074730;28;20020;-78
2022/07/28 07:35:50;;;;;;;3.92;0.95;;;;;;;31.09;24.18;102055.19;5075877;28;20028;-77
2022/07/28 07:38:15;;;;;;;0.73;0.40;;;;;;;32.19;22.34;102059.94;5094048;28;20020;-77
2022/07/28 07:40:41;;;;;;;2.53;0.50;;;;;;;31.38;22.91;102048.44;5093185;28;20471;-77
2022/07/28 07:43:06;;;;;;;4.22;0.70;;;;;;;32.09;22.24;102053.53;5093375;28;20052;-77
2022/07/28 07:45:33;;;;;;;2.30;0.70;;;;;;;33.38;21.30;102046.28;5075633;28;20086;-77
2022/07/28 07:47:59;;;;;;;2.78;0.70;;;;;;;31.08;23.20;102048.06;5074491;28;20493;-77
2022/07/28 07:50:24;;;;;;;2.83;0.75;;;;;;;30.15;24.10;102054.19;5075504;28;20066;-77
2022/07/28 07:52:49;;;;;;;1.83;0.57;;;;;;;31.06;24.11;102043.78;5075662;28;20115;-77
2022/07/28 07:55:16;;;;;;;2.00;0.77;;;;;;;30.75;24.71;102054.25;5074426;28;20016;-77
2022/07/28 07:57:42;;;;;;;1.30;0.52;;;;;;;32.26;23.07;102044.91;5093257;28;20020;-76
2022/07/28 08:00:08;;;;;;;1.08;0.65;;;;;;;31.49;23.76;102055.69;5075034;28;20020;-77
2022/07/28 08:02:38;;;;;;;3.47;0.88;;;;;;;30.85;23.72;102052.53;5074482;28;20464;-76
2022/07/28 08:05:03;;;;;;;3.88;0.75;;;;;;;31.50;23.06;102058.28;5075044;28;20433;-77
2022/07/28 08:07:29;;;;;;;2.85;0.60;;;;;;;30.88;23.27;102052.28;5075243;28;20031;-77
2022/07/28 08:09:54;;;;;;;3.25;0.88;;;;;;;29.82;24.22;102052.97;5074440;28;20024;-77
2022/07/28 08:12:19;;;;;;;2.33;0.75;;;;;;;31.19;22.94;102047.22;5074999;28;20627;-77
2022/07/28 08:14:45;;;;;;;4.30;0.73;;;;;;;31.21;23.01;102041.69;5074821;28;20065;-76
2022/07/28 08:17:10;;;;;;;2.47;0.68;;;;;;;32.27;22.54;102052.06;5091945;28;20024;-77
2022/07/28 08:19:35;;;;;;;3.08;0.70;;;;;;;33.44;21.85;102043.88;5074532;28;20090;-76
2022/07/28 08:22:01;;;;;;;2.28;0.98;;;;;;;34.50;20.66;102040.66;5074737;28;20121;-77
2022/07/28 08:24:26;;;;;;;1.33;0.50;;;;;;;34.83;19.04;102033.06;5073671;28;20479;-76
2022/07/28 08:26:52;;;;;;;2.55;1.00;;;;;;;35.33;19.04;102035.47;5074261;28;20063;-76
2022/07/28 08:29:17;;;;;;;3.13;0.70;;;;;;;34.82;19.74;102042.22;5092422;28;20058;-76
2022/07/28 08:31:43;;;;;;;2.50;0.70;;;;;;;35.30;19.36;102029.47;5092454;28;20032;-76
2022/07/28 08:34:08;;;;;;;2.20;1.02;;;;;;;35.00;19.64;102035.00;5074521;28;20016;-76
2022/07/28 08:36:33;;;;;;;2.03;0.80;;;;;;;35.36;18.89;102038.94;5091715;28;20035;-76
2022/07/28 08:38:59;;;;;;;2.40;0.68;;;;;;;35.46;18.93;102045.16;5092463;28;20027;-76
2022/07/28 08:41:47;;;;;;;1.38;0.55;;;;;;;35.43;19.61;102042.75;5074473;28;20475;-77
2022/07/28 08:44:23;;;;;;;2.60;0.50;;;;;;;34.36;20.24;102041.09;5091563;28;20083;-76
2022/07/28 08:46:49;;;;;;;0.50;0.47;;;;;;;34.88;19.51;102038.91;5092226;28;20103;-77
2022/07/28 08:49:15;;;;;;;1.85;0.73;;;;;;;35.76;19.25;102038.53;5074223;28;20123;-76
2022/07/28 08:51:41;;;;;;;1.50;0.82;;;;;;;36.04;18.34;102038.53;5073392;28;20020;-76
2022/07/28 08:54:09;;;;;;;2.35;0.80;;;;;;;37.31;16.78;102031.03;5092440;28;20016;-76
2022/07/28 08:56:39;;;;;;;0.70;0.47;;;;;;;35.38;18.28;102036.91;5073797;28;20118;-75
2022/07/28 08:59:05;;;;;;;1.88;0.75;;;;;;;33.27;20.95;102031.81;5091226;28;20028;-75
2022/07/28 09:01:30;;;;;;;3.00;0.80;;;;;;;35.49;18.68;102034.84;5091947;28;20040;-76
2022/07/28 09:03:56;;;;;;;3.85;0.80;;;;;;;37.18;18.07;102026.84;5092051;28;20036;-76
2022/07/28 09:06:22;;;;;;;2.65;0.70;;;;;;;34.89;19.90;102029.75;5073092;28;20504;-75
2022/07/28 09:08:48;;;;;;;1.60;0.70;;;;;;;34.55;19.91;102030.22;5073726;28;20030;-76
2022/07/28 09:11:13;;;;;;;2.17;0.93;;;;;;;33.33;21.07;102032.28;5073896;28;20111;-76
2022/07/28 09:13:39;;;;;;;1.40;0.70;;;;;;;33.88;20.04;102029.16;5073227;28;20491;-76
2022/07/28 09:16:05;;;;;;;4.90;0.75;;;;;;;34.60;19.61;102025.22;5073671;28;20073;-76
2022/07/28 09:18:30;;;;;;;2.92;0.70;;;;;;;33.17;20.54;102039.03;5073399;28;20482;-75
2022/07/28 09:20:55;;;;;;;1.30;0.40;;;;;;;32.39;21.64;102035.78;5073820;28;20037;-75
2022/07/28 09:23:21;;;;;;;1.75;0.75;;;;;;;33.76;20.92;102023.00;5073872;28;20468;-76
2022/07/28 09:25:47;;;;;;;2.08;0.60;;;;;;;33.02;21.78;102024.13;5073081;28;20024;-76
2022/07/28 09:28:14;;;;;;;1.92;0.70;;;;;;;32.51;21.58;102015.78;5073603;28;20032;-76
2022/07/28 09:30:42;;;;;;;1.05;0.50;;;;;;;32.08;22.13;102025.66;5074722;28;20028;-75
2022/07/28 09:33:21;;;;;;;4.15;1.08;;;;;;;30.34;24.12;102025.88;5077179;28;20111;-76
2022/07/28 09:35:55;;;;;;;3.42;0.60;;;;;;;30.21;23.85;102021.41;5096206;28;20081;-75
2022/07/28 09:38:23;;;;;;;0.40;0.40;;;;;;;29.85;25.42;102015.06;5077581;28;20475;-75
2022/07/28 09:41:00;;;;;;;1.38;0.63;;;;;;;30.87;23.23;102012.81;5076829;28;20024;-75
2022/07/28 09:43:34;;;;;;;2.42;0.80;;;;;;;31.73;22.68;102020.47;5077175;28;20075;-75
2022/07/28 09:46:08;;;;;;;2.10;0.63;;;;;;;32.87;22.41;102010.94;5077651;28;20034;-75
2022/07/28 09:48:49;;;;;;;3.38;0.80;;;;;;;30.39;23.92;102012.88;5076991;28;20499;-76
2022/07/28 09:51:34;;;;;;;1.40;0.60;;;;;;;30.92;22.83;102007.88;5077277;28;20501;-75
2022/07/28 09:54:14;;;;;;;1.63;0.63;;;;;;;31.70;23.02;102020.72;5075929;28;20097;-76
2022/07/28 09:56:42;;;;;;;0.82;0.40;;;;;;;31.34;22.14;102010.03;5095764;28;20077;-76
2022/07/28 09:59:09;;;;;;;2.10;0.70;;;;;;;31.40;22.04;102003.28;5095365;28;20023;-75
2022/07/28 10:01:59;;;;;;;13.02;1.13;;;;;;;30.25;22.89;102001.31;5076505;28;20027;-76
2022/07/28 10:04:43;;;;;;;2.17;0.70;;;;;;;30.58;22.80;102006.97;5095533;28;20108;-77
2022/07/28 10:07:15;;;;;;;2.67;0.65;;;;;;;32.83;20.32;101993.22;5077202;28;20039;-75
2022/07/28 10:09:41;;;;;;;1.88;0.70;;;;;;;32.11;20.85;101992.94;5076459;28;20105;-76
2022/07/28 10:12:14;;;;;;;0.70;0.57;;;;;;;32.16;21.45;101984.47;5076928;28;20028;-76
2022/07/28 10:14:40;;;;;;;0.80;0.45;;;;;;;31.09;21.59;101984.13;5095202;28;20038;-75
2022/07/28 10:17:05;;;;;;;0.68;0.60;;;;;;;32.07;20.45;101969.03;5094752;28;20416;-75
2022/07/28 10:19:31;;;;;;;6.35;1.38;;;;;;;32.67;21.24;101973.88;5095018;28;20028;-76
2022/07/28 10:21:59;;;;;;;1.75;0.65;;;;;;;32.52;19.37;101968.81;5076189;28;20024;-76
2022/07/28 10:24:30;;;;;;;0.88;0.40;;;;;;;33.22;18.92;101968.19;5076890;28;20063;-76
2022/07/28 10:26:57;;;;;;;1.13;0.50;;;;;;;32.94;20.34;101973.34;5095018;28;20035;-76
2022/07/28 10:29:23;;;;;;;1.80;0.57;;;;;;;32.94;19.90;101971.47;5076117;28;20110;-75
2022/07/28 10:31:52;;;;;;;0.60;0.47;;;;;;;32.49;19.75;101966.34;5076597;28;20131;-76
2022/07/28 10:34:36;;;;;;;1.85;0.40;;;;;;;33.66;19.37;101963.34;5076536;28;20024;-76
2022/07/28 10:37:03;;;;;;;0.50;0.50;;;;;;;33.75;18.09;101970.63;5076128;28;20024;-75
2022/07/28 10:39:40;;;;;;;0.73;0.40;;;;;;;32.64;19.23;101969.59;5094706;28;20031;-76
2022/07/28 10:42:12;;;;;;;2.38;0.68;;;;;;;32.91;19.18;101958.22;5076278;28;20051;-75
2022/07/28 10:44:38;;;;;;;0.70;0.35;;;;;;;33.25;18.58;101954.38;5093947;28;20377;-76
2022/07/28 10:47:10;;;;;;;4.00;0.50;;;;;;;32.14;21.09;101953.97;5076152;28;20057;-76
2022/07/28 10:49:38;;;;;;;1.65;0.60;;;;;;;33.51;19.16;101954.78;5076465;28;20387;-76
2022/07/28 10:52:05;;;;;;;2.35;0.60;;;;;;;33.90;19.50;101960.25;5093948;28;20024;-76
2022/07/28 10:54:42;;;;;;;1.08;0.40;;;;;;;33.14;18.53;101947.22;5076529;28;20170;-77
2022/07/28 10:57:11;;;;;;;0.55;0.45;;;;;;;32.52;19.15;101957.13;5075455;28;20051;-76
2022/07/28 11:00:03;;;;;;;2.83;0.52;;;;;;;33.17;19.21;101955.06;5076166;28;20073;-76
2022/07/28 11:02:44;;;;;;;1.35;0.65;;;;;;;31.89;20.50;101961.47;5075631;28;20035;-76
2022/07/28 11:05:29;;;;;;;0.68;0.60;;;;;;;32.56;19.67;101948.63;5075158;28;20042;-76
2022/07/28 11:07:57;;;;;;;2.60;0.50;;;;;;;32.68;19.75;101952.09;5093977;28;20031;-76
2022/07/28 11:10:23;;;;;;;0.80;0.40;;;;;;;32.20;20.79;101941.81;5076144;28;20119;-75
2022/07/28 11:12:50;;;;;;;3.20;0.60;;;;;;;33.73;19.76;101941.94;5075242;28;20106;-76
2022/07/28 11:15:28;;;;;;;1.00;0.50;;;;;;;32.06;20.13;101948.38;5076049;28;20122;-76
2022/07/28 11:18:06;;;;;;;0.75;0.40;;;;;;;31.87;20.40;101949.91;5075857;28;20437;-76
2022/07/28 11:20:51;;;;;;;0.60;0.47;;;;;;;32.39;19.19;101935.69;5075913;28;20028;-76
2022/07/28 11:23:35;;;;;;;1.95;0.50;;;;;;;33.48;20.45;101934.22;5075774;28;20480;-76
2022/07/28 11:26:19;;;;;;;2.05;0.77;;;;;;;31.66;20.14;101949.00;5093307;28;20047;-76
2022/07/28 11:29:02;;;;;;;0.73;0.47;;;;;;;31.72;20.08;101948.50;5075773;28;20080;-75
2022/07/28 11:31:43;;;;;;;2.15;0.60;;;;;;;31.76;20.04;101949.94;5075780;28;20024;-76
2022/07/28 11:34:18;;;;;;;1.17;0.70;;;;;;;32.89;19.66;101935.88;5093158;28;20028;-77